sensor_id;sensor_type;location;lat;lon;timestamp;P1;durP1;ratioP1;P2;durP2;ratioP2
3847;SDS011;1939;48.720;9.166;2023-01-20T00:02:22;20.63;;;10.33;;
3847;SDS011;1939;48.720;9.166;2023-01-20T00:04:47;19.33;;;10.83;;
3847;SDS011;1939;48.720;9.166;2023-01-20T00:07:12;20.90;;;11.80;;
3847;SDS011;1939;48.720;9.166;2023-01-20T00:09:38;17.97;;;10.10;;
3847;SDS011;1939;48.720;9.166;2023-01-20T00:12:03;16.33;;;10.93;;
3847;SDS011;1939;48.720;9.166;2023-01-20T00:14:28;21.77;;;10.80;;
3847;SDS011;1939;48.720;9.166;2023-01-20T00:16:53;22.33;;;10.80;;
3847;SDS011;1939;48.720;9.166;2023-01-20T00:19:21;23.77;;;11.20;;
3847;SDS011;1939;48.720;9.166;2023-01-20T00:21:46;21.43;;;11.10;;
3847;SDS011;1939;48.720;9.166;2023-01-20T00:24:11;19.10;;;11.80;;
3847;SDS011;1939;48.720;9.166;2023-01-20T00:26:36;17.10;;;11.03;;
3847;SDS011;1939;48.720;9.166;2023-01-20T00:29:12;25.00;;;11.40;;
3847;SDS011;1939;48.720;9.166;2023-01-20T00:31:37;19.87;;;10.87;;
3847;SDS011;1939;48.720;9.166;2023-01-20T00:34:03;22.93;;;12.80;;
3847;SDS011;1939;48.720;9.166;2023-01-20T00:36:29;27.83;;;14.67;;
3847;SDS011;1939;48.720;9.166;2023-01-20T00:38:55;31.40;;;15.57;;
3847;SDS011;1939;48.720;9.166;2023-01-20T00:41:20;29.50;;;15.37;;
3847;SDS011;1939;48.720;9.166;2023-01-20T00:43:46;40.67;;;19.80;;
3847;SDS011;1939;48.720;9.166;2023-01-20T00:46:11;37.37;;;18.77;;
3847;SDS011;1939;48.720;9.166;2023-01-20T00:48:36;38.73;;;16.80;;
3847;SDS011;1939;48.720;9.166;2023-01-20T00:51:02;31.30;;;14.70;;
3847;SDS011;1939;48.720;9.166;2023-01-20T00:53:28;26.57;;;12.70;;
3847;SDS011;1939;48.720;9.166;2023-01-20T00:55:53;23.40;;;12.30;;
3847;SDS011;1939;48.720;9.166;2023-01-20T00:58:18;29.47;;;14.23;;
3847;SDS011;1939;48.720;9.166;2023-01-20T01:00:47;25.60;;;13.13;;
3847;SDS011;1939;48.720;9.166;2023-01-20T01:03:12;22.20;;;11.57;;
3847;SDS011;1939;48.720;9.166;2023-01-20T01:05:38;21.43;;;11.40;;
3847;SDS011;1939;48.720;9.166;2023-01-20T01:08:03;15.03;;;10.03;;
3847;SDS011;1939;48.720;9.166;2023-01-20T01:10:28;15.50;;;10.13;;
3847;SDS011;1939;48.720;9.166;2023-01-20T01:12:53;17.33;;;10.30;;
3847;SDS011;1939;48.720;9.166;2023-01-20T01:15:19;19.10;;;10.60;;
3847;SDS011;1939;48.720;9.166;2023-01-20T01:17:44;18.93;;;10.73;;
3847;SDS011;1939;48.720;9.166;2023-01-20T01:20:10;15.57;;;8.50;;
3847;SDS011;1939;48.720;9.166;2023-01-20T01:22:35;17.10;;;9.83;;
3847;SDS011;1939;48.720;9.166;2023-01-20T01:25:00;17.10;;;9.90;;
3847;SDS011;1939;48.720;9.166;2023-01-20T01:27:26;48.27;;;18.23;;
3847;SDS011;1939;48.720;9.166;2023-01-20T01:29:51;83.70;;;30.43;;
3847;SDS011;1939;48.720;9.166;2023-01-20T01:32:17;43.93;;;17.93;;
3847;SDS011;1939;48.720;9.166;2023-01-20T01:34:42;27.43;;;13.57;;
3847;SDS011;1939;48.720;9.166;2023-01-20T01:37:07;84.07;;;28.30;;
3847;SDS011;1939;48.720;9.166;2023-01-20T01:39:32;170.63;;;44.30;;
3847;SDS011;1939;48.720;9.166;2023-01-20T01:41:57;55.53;;;20.33;;
3847;SDS011;1939;48.720;9.166;2023-01-20T01:44:24;25.27;;;12.67;;
3847;SDS011;1939;48.720;9.166;2023-01-20T01:46:49;34.97;;;12.70;;
3847;SDS011;1939;48.720;9.166;2023-01-20T01:49:25;16.07;;;9.57;;
3847;SDS011;1939;48.720;9.166;2023-01-20T01:51:54;15.73;;;9.97;;
3847;SDS011;1939;48.720;9.166;2023-01-20T01:54:22;25.53;;;12.80;;
3847;SDS011;1939;48.720;9.166;2023-01-20T01:56:48;18.30;;;9.93;;
3847;SDS011;1939;48.720;9.166;2023-01-20T01:59:15;20.47;;;9.63;;
3847;SDS011;1939;48.720;9.166;2023-01-20T02:01:41;19.50;;;9.80;;
3847;SDS011;1939;48.720;9.166;2023-01-20T02:04:10;18.70;;;11.00;;
3847;SDS011;1939;48.720;9.166;2023-01-20T02:06:36;21.53;;;10.23;;
3847;SDS011;1939;48.720;9.166;2023-01-20T02:09:03;15.67;;;9.40;;
3847;SDS011;1939;48.720;9.166;2023-01-20T02:11:29;23.70;;;12.90;;
3847;SDS011;1939;48.720;9.166;2023-01-20T02:13:55;29.93;;;10.20;;
3847;SDS011;1939;48.720;9.166;2023-01-20T02:16:27;23.50;;;11.13;;
3847;SDS011;1939;48.720;9.166;2023-01-20T02:18:59;22.83;;;10.37;;
3847;SDS011;1939;48.720;9.166;2023-01-20T02:26:38;17.93;;;8.93;;
3847;SDS011;1939;48.720;9.166;2023-01-20T02:34:29;19.83;;;10.63;;
3847;SDS011;1939;48.720;9.166;2023-01-20T02:36:57;20.90;;;10.23;;
3847;SDS011;1939;48.720;9.166;2023-01-20T02:39:26;17.40;;;11.00;;
3847;SDS011;1939;48.720;9.166;2023-01-20T02:41:54;17.93;;;9.70;;
3847;SDS011;1939;48.720;9.166;2023-01-20T02:44:22;16.50;;;9.23;;
3847;SDS011;1939;48.720;9.166;2023-01-20T02:49:38;17.47;;;10.30;;
3847;SDS011;1939;48.720;9.166;2023-01-20T02:52:06;18.00;;;10.50;;
3847;SDS011;1939;48.720;9.166;2023-01-20T02:54:33;18.70;;;10.30;;
3847;SDS011;1939;48.720;9.166;2023-01-20T02:57:00;16.00;;;10.87;;
3847;SDS011;1939;48.720;9.166;2023-01-20T02:59:27;13.97;;;9.17;;
3847;SDS011;1939;48.720;9.166;2023-01-20T03:01:56;15.40;;;9.20;;
3847;SDS011;1939;48.720;9.166;2023-01-20T03:04:24;19.57;;;11.40;;
3847;SDS011;1939;48.720;9.166;2023-01-20T03:06:53;16.87;;;9.80;;
3847;SDS011;1939;48.720;9.166;2023-01-20T03:09:20;14.27;;;9.17;;
3847;SDS011;1939;48.720;9.166;2023-01-20T03:11:53;19.70;;;10.60;;
3847;SDS011;1939;48.720;9.166;2023-01-20T03:14:20;21.70;;;10.13;;
3847;SDS011;1939;48.720;9.166;2023-01-20T03:16:45;19.13;;;10.40;;
3847;SDS011;1939;48.720;9.166;2023-01-20T03:19:12;16.10;;;10.30;;
3847;SDS011;1939;48.720;9.166;2023-01-20T03:21:38;13.80;;;9.50;;
3847;SDS011;1939;48.720;9.166;2023-01-20T03:24:04;15.07;;;10.23;;
3847;SDS011;1939;48.720;9.166;2023-01-20T03:26:29;16.00;;;10.70;;
3847;SDS011;1939;48.720;9.166;2023-01-20T03:28:55;16.83;;;10.20;;
3847;SDS011;1939;48.720;9.166;2023-01-20T03:31:33;19.47;;;11.50;;
3847;SDS011;1939;48.720;9.166;2023-01-20T03:33:59;14.63;;;9.27;;
3847;SDS011;1939;48.720;9.166;2023-01-20T03:36:26;14.33;;;10.30;;
3847;SDS011;1939;48.720;9.166;2023-01-20T03:38:52;13.87;;;8.73;;
3847;SDS011;1939;48.720;9.166;2023-01-20T03:41:23;16.37;;;9.60;;
3847;SDS011;1939;48.720;9.166;2023-01-20T03:46:19;18.27;;;10.47;;
3847;SDS011;1939;48.720;9.166;2023-01-20T03:48:52;13.73;;;9.27;;
3847;SDS011;1939;48.720;9.166;2023-01-20T03:51:33;15.70;;;10.30;;
3847;SDS011;1939;48.720;9.166;2023-01-20T03:54:06;16.07;;;10.40;;
3847;SDS011;1939;48.720;9.166;2023-01-20T03:56:34;16.13;;;9.50;;
3847;SDS011;1939;48.720;9.166;2023-01-20T03:59:00;17.93;;;9.93;;
3847;SDS011;1939;48.720;9.166;2023-01-20T04:01:29;17.47;;;9.90;;
3847;SDS011;1939;48.720;9.166;2023-01-20T04:03:56;16.60;;;9.90;;
3847;SDS011;1939;48.720;9.166;2023-01-20T04:06:22;15.03;;;9.03;;
3847;SDS011;1939;48.720;9.166;2023-01-20T04:08:55;17.40;;;9.67;;
3847;SDS011;1939;48.720;9.166;2023-01-20T04:11:22;18.20;;;10.67;;
3847;SDS011;1939;48.720;9.166;2023-01-20T04:13:48;14.77;;;9.67;;
3847;SDS011;1939;48.720;9.166;2023-01-20T04:16:15;14.03;;;8.93;;
3847;SDS011;1939;48.720;9.166;2023-01-20T04:18:41;14.20;;;8.97;;
3847;SDS011;1939;48.720;9.166;2023-01-20T04:21:07;21.73;;;8.97;;
3847;SDS011;1939;48.720;9.166;2023-01-20T04:23:35;15.67;;;8.20;;
3847;SDS011;1939;48.720;9.166;2023-01-20T04:26:03;14.47;;;8.53;;
3847;SDS011;1939;48.720;9.166;2023-01-20T04:28:28;13.17;;;9.50;;
3847;SDS011;1939;48.720;9.166;2023-01-20T04:30:54;14.03;;;8.40;;
3847;SDS011;1939;48.720;9.166;2023-01-20T04:33:19;19.90;;;9.60;;
3847;SDS011;1939;48.720;9.166;2023-01-20T04:35:44;19.90;;;9.90;;
3847;SDS011;1939;48.720;9.166;2023-01-20T04:38:09;16.23;;;8.90;;
3847;SDS011;1939;48.720;9.166;2023-01-20T04:40:35;17.40;;;9.97;;
3847;SDS011;1939;48.720;9.166;2023-01-20T04:43:00;19.00;;;8.20;;
3847;SDS011;1939;48.720;9.166;2023-01-20T04:45:25;16.40;;;8.87;;
3847;SDS011;1939;48.720;9.166;2023-01-20T04:47:50;14.33;;;8.40;;
3847;SDS011;1939;48.720;9.166;2023-01-20T04:50:15;14.33;;;8.70;;
3847;SDS011;1939;48.720;9.166;2023-01-20T04:52:41;14.60;;;9.17;;
3847;SDS011;1939;48.720;9.166;2023-01-20T04:55:06;15.77;;;8.63;;
3847;SDS011;1939;48.720;9.166;2023-01-20T04:57:32;13.73;;;7.80;;
3847;SDS011;1939;48.720;9.166;2023-01-20T04:59:57;14.27;;;7.50;;
3847;SDS011;1939;48.720;9.166;2023-01-20T05:02:22;12.70;;;8.10;;
3847;SDS011;1939;48.720;9.166;2023-01-20T05:04:47;14.00;;;7.80;;
3847;SDS011;1939;48.720;9.166;2023-01-20T05:07:12;16.37;;;9.00;;
3847;SDS011;1939;48.720;9.166;2023-01-20T05:09:38;13.87;;;8.83;;
3847;SDS011;1939;48.720;9.166;2023-01-20T05:12:03;20.07;;;9.27;;
3847;SDS011;1939;48.720;9.166;2023-01-20T05:14:28;15.80;;;9.60;;
3847;SDS011;1939;48.720;9.166;2023-01-20T05:16:53;15.17;;;9.30;;
3847;SDS011;1939;48.720;9.166;2023-01-20T05:19:18;19.00;;;10.00;;
3847;SDS011;1939;48.720;9.166;2023-01-20T05:21:44;20.13;;;10.03;;
3847;SDS011;1939;48.720;9.166;2023-01-20T05:24:09;13.73;;;9.03;;
3847;SDS011;1939;48.720;9.166;2023-01-20T05:26:34;20.30;;;10.47;;
3847;SDS011;1939;48.720;9.166;2023-01-20T05:28:59;21.23;;;8.23;;
3847;SDS011;1939;48.720;9.166;2023-01-20T05:31:25;16.17;;;9.60;;
3847;SDS011;1939;48.720;9.166;2023-01-20T05:33:50;24.93;;;10.27;;
3847;SDS011;1939;48.720;9.166;2023-01-20T05:36:15;15.37;;;10.03;;
3847;SDS011;1939;48.720;9.166;2023-01-20T05:38:40;15.77;;;10.73;;
3847;SDS011;1939;48.720;9.166;2023-01-20T05:41:06;17.93;;;9.83;;
3847;SDS011;1939;48.720;9.166;2023-01-20T05:43:32;18.27;;;10.50;;
3847;SDS011;1939;48.720;9.166;2023-01-20T05:45:57;16.07;;;9.43;;
3847;SDS011;1939;48.720;9.166;2023-01-20T05:48:22;16.20;;;9.50;;
3847;SDS011;1939;48.720;9.166;2023-01-20T05:50:48;15.20;;;10.10;;
3847;SDS011;1939;48.720;9.166;2023-01-20T05:53:13;15.17;;;9.37;;
3847;SDS011;1939;48.720;9.166;2023-01-20T05:55:38;16.77;;;9.53;;
3847;SDS011;1939;48.720;9.166;2023-01-20T05:58:03;12.23;;;7.63;;
3847;SDS011;1939;48.720;9.166;2023-01-20T06:00:29;16.70;;;9.20;;
3847;SDS011;1939;48.720;9.166;2023-01-20T06:02:54;16.23;;;9.40;;
3847;SDS011;1939;48.720;9.166;2023-01-20T06:05:19;14.60;;;9.43;;
3847;SDS011;1939;48.720;9.166;2023-01-20T06:07:45;17.87;;;7.97;;
3847;SDS011;1939;48.720;9.166;2023-01-20T06:10:10;18.90;;;9.27;;
3847;SDS011;1939;48.720;9.166;2023-01-20T06:12:35;18.13;;;9.73;;
3847;SDS011;1939;48.720;9.166;2023-01-20T06:15:01;15.90;;;8.30;;
3847;SDS011;1939;48.720;9.166;2023-01-20T06:17:26;21.37;;;10.30;;
3847;SDS011;1939;48.720;9.166;2023-01-20T06:19:51;17.40;;;9.00;;
3847;SDS011;1939;48.720;9.166;2023-01-20T06:22:16;17.07;;;8.90;;
3847;SDS011;1939;48.720;9.166;2023-01-20T06:24:44;15.40;;;8.63;;
3847;SDS011;1939;48.720;9.166;2023-01-20T06:27:09;16.50;;;9.00;;
3847;SDS011;1939;48.720;9.166;2023-01-20T06:29:34;17.70;;;8.70;;
3847;SDS011;1939;48.720;9.166;2023-01-20T06:32:00;20.47;;;7.77;;
3847;SDS011;1939;48.720;9.166;2023-01-20T06:34:25;15.60;;;8.60;;
3847;SDS011;1939;48.720;9.166;2023-01-20T06:36:50;16.80;;;9.37;;
3847;SDS011;1939;48.720;9.166;2023-01-20T06:39:15;13.23;;;7.50;;
3847;SDS011;1939;48.720;9.166;2023-01-20T06:41:40;12.10;;;7.70;;
3847;SDS011;1939;48.720;9.166;2023-01-20T06:44:05;12.87;;;7.83;;
3847;SDS011;1939;48.720;9.166;2023-01-20T06:46:31;17.07;;;9.73;;
3847;SDS011;1939;48.720;9.166;2023-01-20T06:48:56;12.60;;;7.20;;
3847;SDS011;1939;48.720;9.166;2023-01-20T06:51:24;16.33;;;8.70;;
3847;SDS011;1939;48.720;9.166;2023-01-20T06:53:50;11.83;;;8.57;;
3847;SDS011;1939;48.720;9.166;2023-01-20T06:56:15;16.90;;;8.17;;
3847;SDS011;1939;48.720;9.166;2023-01-20T06:58:40;21.10;;;8.20;;
3847;SDS011;1939;48.720;9.166;2023-01-20T07:01:10;16.23;;;8.40;;
3847;SDS011;1939;48.720;9.166;2023-01-20T07:03:36;12.00;;;8.30;;
3847;SDS011;1939;48.720;9.166;2023-01-20T07:06:06;15.07;;;8.47;;
3847;SDS011;1939;48.720;9.166;2023-01-20T07:08:36;12.67;;;7.77;;
3847;SDS011;1939;48.720;9.166;2023-01-20T07:11:02;13.13;;;8.47;;
3847;SDS011;1939;48.720;9.166;2023-01-20T07:13:27;13.23;;;7.50;;
3847;SDS011;1939;48.720;9.166;2023-01-20T07:15:52;13.17;;;8.80;;
3847;SDS011;1939;48.720;9.166;2023-01-20T07:18:17;16.13;;;8.50;;
3847;SDS011;1939;48.720;9.166;2023-01-20T07:20:42;14.03;;;7.60;;
3847;SDS011;1939;48.720;9.166;2023-01-20T07:23:07;12.80;;;7.83;;
3847;SDS011;1939;48.720;9.166;2023-01-20T07:25:33;17.07;;;10.00;;
3847;SDS011;1939;48.720;9.166;2023-01-20T07:27:58;12.23;;;9.33;;
3847;SDS011;1939;48.720;9.166;2023-01-20T07:30:23;13.93;;;7.60;;
3847;SDS011;1939;48.720;9.166;2023-01-20T07:32:48;15.37;;;9.30;;
3847;SDS011;1939;48.720;9.166;2023-01-20T07:35:14;17.57;;;9.50;;
3847;SDS011;1939;48.720;9.166;2023-01-20T07:37:39;15.60;;;9.97;;
3847;SDS011;1939;48.720;9.166;2023-01-20T07:40:05;22.13;;;8.43;;
3847;SDS011;1939;48.720;9.166;2023-01-20T07:42:30;15.63;;;9.40;;
3847;SDS011;1939;48.720;9.166;2023-01-20T07:44:55;14.90;;;7.83;;
3847;SDS011;1939;48.720;9.166;2023-01-20T07:47:21;16.20;;;9.10;;
3847;SDS011;1939;48.720;9.166;2023-01-20T07:49:46;13.97;;;7.80;;
3847;SDS011;1939;48.720;9.166;2023-01-20T07:52:11;16.10;;;8.30;;
3847;SDS011;1939;48.720;9.166;2023-01-20T07:54:36;29.23;;;8.90;;
3847;SDS011;1939;48.720;9.166;2023-01-20T07:57:01;12.87;;;8.27;;
3847;SDS011;1939;48.720;9.166;2023-01-20T07:59:26;13.20;;;9.47;;
3847;SDS011;1939;48.720;9.166;2023-01-20T08:01:53;15.40;;;8.63;;
3847;SDS011;1939;48.720;9.166;2023-01-20T08:04:18;19.17;;;9.20;;
3847;SDS011;1939;48.720;9.166;2023-01-20T08:06:44;14.50;;;8.67;;
3847;SDS011;1939;48.720;9.166;2023-01-20T08:09:09;30.27;;;9.30;;
3847;SDS011;1939;48.720;9.166;2023-01-20T08:11:36;14.70;;;9.37;;
3847;SDS011;1939;48.720;9.166;2023-01-20T08:14:01;12.10;;;8.63;;
3847;SDS011;1939;48.720;9.166;2023-01-20T08:16:26;14.10;;;7.93;;
3847;SDS011;1939;48.720;9.166;2023-01-20T08:18:52;13.67;;;7.57;;
3847;SDS011;1939;48.720;9.166;2023-01-20T08:21:19;11.63;;;8.03;;
3847;SDS011;1939;48.720;9.166;2023-01-20T08:23:45;12.60;;;7.70;;
3847;SDS011;1939;48.720;9.166;2023-01-20T08:26:10;16.40;;;8.27;;
3847;SDS011;1939;48.720;9.166;2023-01-20T08:28:35;18.20;;;9.27;;
3847;SDS011;1939;48.720;9.166;2023-01-20T08:33:29;17.40;;;7.60;;
3847;SDS011;1939;48.720;9.166;2023-01-20T08:35:54;19.27;;;7.87;;
3847;SDS011;1939;48.720;9.166;2023-01-20T08:38:20;16.97;;;8.33;;
3847;SDS011;1939;48.720;9.166;2023-01-20T08:40:45;12.10;;;7.73;;
3847;SDS011;1939;48.720;9.166;2023-01-20T08:43:11;20.03;;;9.30;;
3847;SDS011;1939;48.720;9.166;2023-01-20T08:45:36;18.90;;;10.00;;
3847;SDS011;1939;48.720;9.166;2023-01-20T08:48:01;19.30;;;9.43;;
3847;SDS011;1939;48.720;9.166;2023-01-20T08:50:26;19.40;;;9.90;;
3847;SDS011;1939;48.720;9.166;2023-01-20T08:52:52;13.63;;;10.40;;
3847;SDS011;1939;48.720;9.166;2023-01-20T08:55:18;15.93;;;10.07;;
3847;SDS011;1939;48.720;9.166;2023-01-20T08:57:43;16.63;;;9.53;;
3847;SDS011;1939;48.720;9.166;2023-01-20T09:00:10;12.83;;;8.40;;
3847;SDS011;1939;48.720;9.166;2023-01-20T09:02:38;14.60;;;8.20;;
3847;SDS011;1939;48.720;9.166;2023-01-20T09:05:04;12.17;;;7.87;;
3847;SDS011;1939;48.720;9.166;2023-01-20T09:07:30;14.40;;;9.60;;
3847;SDS011;1939;48.720;9.166;2023-01-20T09:09:55;15.73;;;7.87;;
3847;SDS011;1939;48.720;9.166;2023-01-20T09:12:20;14.40;;;8.27;;
3847;SDS011;1939;48.720;9.166;2023-01-20T09:14:45;13.93;;;8.97;;
3847;SDS011;1939;48.720;9.166;2023-01-20T09:17:11;11.80;;;7.17;;
3847;SDS011;1939;48.720;9.166;2023-01-20T09:19:36;16.83;;;7.87;;
3847;SDS011;1939;48.720;9.166;2023-01-20T09:22:01;13.53;;;7.80;;
3847;SDS011;1939;48.720;9.166;2023-01-20T09:24:27;13.00;;;7.00;;
3847;SDS011;1939;48.720;9.166;2023-01-20T09:26:52;15.23;;;7.43;;
3847;SDS011;1939;48.720;9.166;2023-01-20T09:29:18;10.50;;;7.63;;
3847;SDS011;1939;48.720;9.166;2023-01-20T09:31:44;10.70;;;7.90;;
3847;SDS011;1939;48.720;9.166;2023-01-20T09:34:13;11.83;;;8.07;;
3847;SDS011;1939;48.720;9.166;2023-01-20T09:36:48;15.80;;;7.73;;
3847;SDS011;1939;48.720;9.166;2023-01-20T09:39:13;12.52;;;7.85;;
3847;SDS011;1939;48.720;9.166;2023-01-20T09:41:57;12.37;;;7.70;;
3847;SDS011;1939;48.720;9.166;2023-01-20T09:47:46;17.80;;;7.60;;
3847;SDS011;1939;48.720;9.166;2023-01-20T09:50:15;16.90;;;7.83;;
3847;SDS011;1939;48.720;9.166;2023-01-20T09:55:42;14.10;;;7.57;;
3847;SDS011;1939;48.720;9.166;2023-01-20T09:58:11;11.37;;;7.27;;
3847;SDS011;1939;48.720;9.166;2023-01-20T10:00:38;14.00;;;7.60;;
3847;SDS011;1939;48.720;9.166;2023-01-20T10:03:06;13.30;;;9.80;;
3847;SDS011;1939;48.720;9.166;2023-01-20T10:05:36;11.60;;;8.20;;
3847;SDS011;1939;48.720;9.166;2023-01-20T10:08:48;14.67;;;7.47;;
3847;SDS011;1939;48.720;9.166;2023-01-20T10:10:48;12.63;;;7.10;;
3847;SDS011;1939;48.720;9.166;2023-01-20T10:15:59;14.30;;;9.30;;
3847;SDS011;1939;48.720;9.166;2023-01-20T10:21:00;12.87;;;7.73;;
3847;SDS011;1939;48.720;9.166;2023-01-20T10:23:34;12.07;;;8.00;;
3847;SDS011;1939;48.720;9.166;2023-01-20T10:26:09;10.83;;;8.20;;
3847;SDS011;1939;48.720;9.166;2023-01-20T10:28:36;11.90;;;7.77;;
3847;SDS011;1939;48.720;9.166;2023-01-20T10:31:02;12.97;;;7.07;;
3847;SDS011;1939;48.720;9.166;2023-01-20T10:33:32;16.33;;;7.73;;
3847;SDS011;1939;48.720;9.166;2023-01-20T10:35:59;11.27;;;7.80;;
3847;SDS011;1939;48.720;9.166;2023-01-20T10:40:54;18.77;;;8.70;;
3847;SDS011;1939;48.720;9.166;2023-01-20T10:43:21;13.47;;;8.27;;
3847;SDS011;1939;48.720;9.166;2023-01-20T10:45:52;11.87;;;7.23;;
3847;SDS011;1939;48.720;9.166;2023-01-20T10:56:06;15.87;;;7.43;;
3847;SDS011;1939;48.720;9.166;2023-01-20T10:58:37;11.67;;;8.90;;
3847;SDS011;1939;48.720;9.166;2023-01-20T11:01:03;9.30;;;5.83;;
3847;SDS011;1939;48.720;9.166;2023-01-20T11:03:36;12.30;;;6.80;;
3847;SDS011;1939;48.720;9.166;2023-01-20T11:06:03;10.30;;;7.00;;
3847;SDS011;1939;48.720;9.166;2023-01-20T11:08:30;10.57;;;6.30;;
3847;SDS011;1939;48.720;9.166;2023-01-20T11:10:56;10.80;;;6.60;;
3847;SDS011;1939;48.720;9.166;2023-01-20T11:13:22;11.57;;;7.00;;
3847;SDS011;1939;48.720;9.166;2023-01-20T11:15:48;12.30;;;7.40;;
3847;SDS011;1939;48.720;9.166;2023-01-20T11:20:44;11.50;;;7.63;;
3847;SDS011;1939;48.720;9.166;2023-01-20T11:25:55;8.77;;;6.33;;
3847;SDS011;1939;48.720;9.166;2023-01-20T11:28:21;11.43;;;6.80;;
3847;SDS011;1939;48.720;9.166;2023-01-20T11:30:49;11.30;;;6.50;;
3847;SDS011;1939;48.720;9.166;2023-01-20T11:35:44;9.80;;;6.75;;
3847;SDS011;1939;48.720;9.166;2023-01-20T11:38:23;15.15;;;6.60;;
3847;SDS011;1939;48.720;9.166;2023-01-20T11:40:52;9.83;;;5.70;;
3847;SDS011;1939;48.720;9.166;2023-01-20T11:43:30;9.10;;;5.60;;
3847;SDS011;1939;48.720;9.166;2023-01-20T11:46:19;8.33;;;6.50;;
3847;SDS011;1939;48.720;9.166;2023-01-20T11:48:43;13.10;;;4.97;;
3847;SDS011;1939;48.720;9.166;2023-01-20T11:51:21;5.50;;;4.10;;
3847;SDS011;1939;48.720;9.166;2023-01-20T11:53:49;5.97;;;4.93;;
3847;SDS011;1939;48.720;9.166;2023-01-20T11:56:16;9.50;;;5.50;;
3847;SDS011;1939;48.720;9.166;2023-01-20T11:58:49;8.30;;;4.70;;
3847;SDS011;1939;48.720;9.166;2023-01-20T12:01:58;6.63;;;3.90;;
3847;SDS011;1939;48.720;9.166;2023-01-20T12:04:48;5.20;;;4.07;;
3847;SDS011;1939;48.720;9.166;2023-01-20T12:09:35;21.27;;;4.63;;
3847;SDS011;1939;48.720;9.166;2023-01-20T12:14:56;10.33;;;3.73;;
3847;SDS011;1939;48.720;9.166;2023-01-20T12:17:36;5.67;;;3.60;;
3847;SDS011;1939;48.720;9.166;2023-01-20T12:25:33;8.07;;;4.40;;
3847;SDS011;1939;48.720;9.166;2023-01-20T12:33:15;6.93;;;3.40;;
3847;SDS011;1939;48.720;9.166;2023-01-20T12:35:42;5.40;;;3.30;;
3847;SDS011;1939;48.720;9.166;2023-01-20T12:38:10;10.93;;;3.83;;
3847;SDS011;1939;48.720;9.166;2023-01-20T12:40:40;6.37;;;3.60;;
3847;SDS011;1939;48.720;9.166;2023-01-20T12:43:12;14.00;;;3.53;;
3847;SDS011;1939;48.720;9.166;2023-01-20T12:48:28;9.50;;;3.50;;
3847;SDS011;1939;48.720;9.166;2023-01-20T12:51:04;10.00;;;2.83;;
3847;SDS011;1939;48.720;9.166;2023-01-20T12:59:20;6.23;;;3.33;;
3847;SDS011;1939;48.720;9.166;2023-01-20T13:14:47;11.52;;;2.88;;
3847;SDS011;1939;48.720;9.166;2023-01-20T13:17:16;4.90;;;2.67;;
3847;SDS011;1939;48.720;9.166;2023-01-20T13:19:43;8.73;;;3.63;;
3847;SDS011;1939;48.720;9.166;2023-01-20T13:22:20;3.50;;;2.70;;
3847;SDS011;1939;48.720;9.166;2023-01-20T13:24:46;6.60;;;2.83;;
3847;SDS011;1939;48.720;9.166;2023-01-20T13:27:13;6.63;;;2.77;;
3847;SDS011;1939;48.720;9.166;2023-01-20T13:29:39;6.03;;;2.30;;
3847;SDS011;1939;48.720;9.166;2023-01-20T13:32:24;11.50;;;3.00;;
3847;SDS011;1939;48.720;9.166;2023-01-20T13:34:49;4.47;;;2.57;;
3847;SDS011;1939;48.720;9.166;2023-01-20T13:39:40;13.20;;;3.30;;
3847;SDS011;1939;48.720;9.166;2023-01-20T13:50:22;4.67;;;2.77;;
3847;SDS011;1939;48.720;9.166;2023-01-20T13:58:00;2.57;;;1.70;;
3847;SDS011;1939;48.720;9.166;2023-01-20T14:00:25;6.30;;;2.13;;
3847;SDS011;1939;48.720;9.166;2023-01-20T14:02:50;8.53;;;3.07;;
3847;SDS011;1939;48.720;9.166;2023-01-20T14:05:23;7.03;;;2.30;;
3847;SDS011;1939;48.720;9.166;2023-01-20T14:07:48;7.00;;;3.17;;
3847;SDS011;1939;48.720;9.166;2023-01-20T14:10:14;5.53;;;2.67;;
3847;SDS011;1939;48.720;9.166;2023-01-20T14:12:39;7.43;;;2.27;;
3847;SDS011;1939;48.720;9.166;2023-01-20T14:15:05;6.67;;;2.70;;
3847;SDS011;1939;48.720;9.166;2023-01-20T14:17:31;4.87;;;2.43;;
3847;SDS011;1939;48.720;9.166;2023-01-20T14:19:56;3.30;;;2.90;;
3847;SDS011;1939;48.720;9.166;2023-01-20T14:22:25;4.80;;;3.00;;
3847;SDS011;1939;48.720;9.166;2023-01-20T14:24:54;5.60;;;2.70;;
3847;SDS011;1939;48.720;9.166;2023-01-20T14:27:25;4.73;;;2.40;;
3847;SDS011;1939;48.720;9.166;2023-01-20T14:29:52;5.73;;;2.73;;
3847;SDS011;1939;48.720;9.166;2023-01-20T14:32:25;5.00;;;2.73;;
3847;SDS011;1939;48.720;9.166;2023-01-20T14:34:51;10.90;;;4.23;;
3847;SDS011;1939;48.720;9.166;2023-01-20T14:37:24;5.57;;;2.83;;
3847;SDS011;1939;48.720;9.166;2023-01-20T14:39:50;4.70;;;3.20;;
3847;SDS011;1939;48.720;9.166;2023-01-20T14:42:16;7.53;;;3.40;;
3847;SDS011;1939;48.720;9.166;2023-01-20T14:44:42;10.18;;;3.75;;
3847;SDS011;1939;48.720;9.166;2023-01-20T14:47:10;7.20;;;3.40;;
3847;SDS011;1939;48.720;9.166;2023-01-20T14:49:35;10.07;;;3.80;;
3847;SDS011;1939;48.720;9.166;2023-01-20T14:52:05;5.60;;;3.13;;
3847;SDS011;1939;48.720;9.166;2023-01-20T14:56:57;8.70;;;3.80;;
3847;SDS011;1939;48.720;9.166;2023-01-20T14:59:22;6.30;;;3.00;;
3847;SDS011;1939;48.720;9.166;2023-01-20T15:01:59;8.60;;;2.90;;
3847;SDS011;1939;48.720;9.166;2023-01-20T15:04:26;10.13;;;3.53;;
3847;SDS011;1939;48.720;9.166;2023-01-20T15:06:58;16.97;;;3.53;;
3847;SDS011;1939;48.720;9.166;2023-01-20T15:09:27;8.73;;;3.70;;
3847;SDS011;1939;48.720;9.166;2023-01-20T15:12:29;7.23;;;3.63;;
3847;SDS011;1939;48.720;9.166;2023-01-20T15:14:37;4.50;;;2.93;;
3847;SDS011;1939;48.720;9.166;2023-01-20T15:17:07;4.70;;;2.67;;
3847;SDS011;1939;48.720;9.166;2023-01-20T15:19:32;6.43;;;3.47;;
3847;SDS011;1939;48.720;9.166;2023-01-20T15:22:15;6.47;;;2.90;;
3847;SDS011;1939;48.720;9.166;2023-01-20T15:24:40;6.47;;;3.23;;
3847;SDS011;1939;48.720;9.166;2023-01-20T15:27:23;6.63;;;4.07;;
3847;SDS011;1939;48.720;9.166;2023-01-20T15:29:58;5.07;;;2.90;;
3847;SDS011;1939;48.720;9.166;2023-01-20T15:32:24;4.57;;;2.77;;
3847;SDS011;1939;48.720;9.166;2023-01-20T15:34:49;3.03;;;2.30;;
3847;SDS011;1939;48.720;9.166;2023-01-20T15:37:16;6.60;;;3.07;;
3847;SDS011;1939;48.720;9.166;2023-01-20T15:39:42;5.70;;;3.30;;
3847;SDS011;1939;48.720;9.166;2023-01-20T15:42:08;6.03;;;3.40;;
3847;SDS011;1939;48.720;9.166;2023-01-20T15:44:35;6.83;;;3.90;;
3847;SDS011;1939;48.720;9.166;2023-01-20T15:47:00;4.07;;;2.70;;
3847;SDS011;1939;48.720;9.166;2023-01-20T15:49:25;9.15;;;3.13;;
3847;SDS011;1939;48.720;9.166;2023-01-20T15:51:50;8.60;;;3.73;;
3847;SDS011;1939;48.720;9.166;2023-01-20T15:54:16;6.10;;;3.00;;
3847;SDS011;1939;48.720;9.166;2023-01-20T15:56:41;5.87;;;3.57;;
3847;SDS011;1939;48.720;9.166;2023-01-20T15:59:13;11.43;;;3.60;;
3847;SDS011;1939;48.720;9.166;2023-01-20T16:01:39;6.80;;;3.83;;
3847;SDS011;1939;48.720;9.166;2023-01-20T16:04:04;7.43;;;3.43;;
3847;SDS011;1939;48.720;9.166;2023-01-20T16:06:30;4.67;;;3.30;;
3847;SDS011;1939;48.720;9.166;2023-01-20T16:08:55;4.43;;;3.70;;
3847;SDS011;1939;48.720;9.166;2023-01-20T16:11:21;23.50;;;3.80;;
3847;SDS011;1939;48.720;9.166;2023-01-20T16:13:47;5.20;;;3.73;;
3847;SDS011;1939;48.720;9.166;2023-01-20T16:16:19;6.60;;;3.27;;
3847;SDS011;1939;48.720;9.166;2023-01-20T16:18:45;5.70;;;4.60;;
3847;SDS011;1939;48.720;9.166;2023-01-20T16:21:13;6.27;;;3.10;;
3847;SDS011;1939;48.720;9.166;2023-01-20T16:23:39;6.43;;;3.60;;
3847;SDS011;1939;48.720;9.166;2023-01-20T16:26:11;4.50;;;3.30;;
3847;SDS011;1939;48.720;9.166;2023-01-20T16:28:40;10.13;;;3.40;;
3847;SDS011;1939;48.720;9.166;2023-01-20T16:31:05;5.30;;;3.27;;
3847;SDS011;1939;48.720;9.166;2023-01-20T16:33:30;6.30;;;3.90;;
3847;SDS011;1939;48.720;9.166;2023-01-20T16:35:55;10.30;;;5.30;;
3847;SDS011;1939;48.720;9.166;2023-01-20T16:38:22;7.40;;;5.10;;
3847;SDS011;1939;48.720;9.166;2023-01-20T16:40:58;12.13;;;5.90;;
3847;SDS011;1939;48.720;9.166;2023-01-20T16:43:26;7.90;;;4.33;;
3847;SDS011;1939;48.720;9.166;2023-01-20T16:45:51;11.67;;;4.23;;